ITY1735 LIRF-LICC
Flight info
| Callsign | ITY1735 |
|---|---|
| Flight time | 0h 51m |
| Altitude | 33000 |
| Route | ROTUN DCT DORAS DCT BEKIV DCT ENEPA DCT LIBRO |
| Aircraft | A320/M-SDE3FGHIRWY/LB1 |
Departure
| Time | 2026-05-04 10:54 |
|---|---|
| Airport | Rome–Fiumicino Leonardo da Vinci International Airport (LIRF) |
Arrival
| Time | 2026-05-04 11:45 |
|---|---|
| Airport | Catania-Fontanarossa Airport (LICC) |
| Time | Latitude | Longitude | Altitude | Speed | Heading |
|---|---|---|---|---|---|
| 2026-05-04 10:39 | 41.79767 | 12.25664 | 16 ft | 0 kts | 294° |
| 2026-05-04 10:44 | 41.79763 | 12.25676 | 17 ft | 2 kts | 294° |
| 2026-05-04 10:45 | 41.79756 | 12.25697 | 17 ft | 2 kts | 294° |
| 2026-05-04 10:45 | 41.79746 | 12.25716 | 19 ft | 3 kts | 330° |
| 2026-05-04 10:45 | 41.79730 | 12.25724 | 19 ft | 3 kts | 6° |
| 2026-05-04 10:45 | 41.79725 | 12.25724 | 20 ft | 0 kts | 15° |
| 2026-05-04 10:49 | 41.80222 | 12.26046 | 15 ft | 24 kts | 25° |
| 2026-05-04 10:49 | 41.80373 | 12.26138 | 15 ft | 23 kts | 21° |
| 2026-05-04 10:50 | 41.80514 | 12.26231 | 14 ft | 21 kts | 58° |
| 2026-05-04 10:51 | 41.80722 | 12.26959 | 12 ft | 21 kts | 69° |
| 2026-05-04 10:52 | 41.80840 | 12.27028 | 10 ft | 20 kts | 348° |
| 2026-05-04 10:52 | 41.80937 | 12.26920 | 14 ft | 17 kts | 289° |
| 2026-05-04 10:52 | 41.80934 | 12.26856 | 12 ft | 0 kts | 254° |
| 2026-05-04 10:54 | 41.79461 | 12.20967 | 1583 ft | 183 kts | 256° |
| 2026-05-04 10:54 | 41.79318 | 12.19187 | 2139 ft | 197 kts | 267° |
| 2026-05-04 10:56 | 41.73704 | 12.08341 | 7034 ft | 228 kts | 221° |
| 2026-05-04 10:56 | 41.72465 | 12.06944 | 7511 ft | 242 kts | 208° |
| 2026-05-04 10:56 | 41.70791 | 12.06332 | 7813 ft | 262 kts | 176° |
| 2026-05-04 10:57 | 41.68925 | 12.06758 | 8233 ft | 280 kts | 166° |
| 2026-05-04 10:57 | 41.66996 | 12.07344 | 8981 ft | 287 kts | 165° |
| 2026-05-04 10:57 | 41.65028 | 12.07948 | 9788 ft | 292 kts | 166° |
| 2026-05-04 10:57 | 41.63022 | 12.08561 | 10430 ft | 303 kts | 166° |
| 2026-05-04 10:58 | 41.60880 | 12.09211 | 10670 ft | 327 kts | 166° |
| 2026-05-04 10:58 | 41.58600 | 12.09898 | 11097 ft | 342 kts | 166° |
| 2026-05-04 10:58 | 41.56293 | 12.10586 | 11771 ft | 347 kts | 166° |
| 2026-05-04 10:58 | 41.53923 | 12.11291 | 12516 ft | 351 kts | 166° |
| 2026-05-04 10:59 | 41.51525 | 12.12003 | 13267 ft | 354 kts | 166° |
| 2026-05-04 10:59 | 41.49103 | 12.12721 | 14003 ft | 357 kts | 167° |
| 2026-05-04 10:59 | 41.46657 | 12.13441 | 14649 ft | 361 kts | 167° |
| 2026-05-04 10:59 | 41.44180 | 12.14170 | 15282 ft | 365 kts | 167° |
| 2026-05-04 11:00 | 41.41683 | 12.14907 | 15879 ft | 369 kts | 167° |
| 2026-05-04 11:01 | 41.23493 | 12.20267 | 19938 ft | 395 kts | 167° |
| 2026-05-04 11:02 | 41.20819 | 12.21058 | 20466 ft | 399 kts | 168° |
| 2026-05-04 11:02 | 41.18092 | 12.21861 | 20994 ft | 402 kts | 168° |
| 2026-05-04 11:05 | 40.78145 | 12.36659 | 26897 ft | 450 kts | 157° |
| 2026-05-04 11:06 | 40.75278 | 12.38374 | 27234 ft | 453 kts | 157° |
| 2026-05-04 11:06 | 40.72428 | 12.40073 | 27564 ft | 456 kts | 157° |
| 2026-05-04 11:06 | 40.69522 | 12.41805 | 27895 ft | 459 kts | 157° |
| 2026-05-04 11:06 | 40.66605 | 12.43542 | 28211 ft | 462 kts | 157° |
| 2026-05-04 11:08 | 40.46675 | 12.55362 | 30177 ft | 479 kts | 158° |
| 2026-05-04 11:10 | 40.25116 | 12.68081 | 31828 ft | 489 kts | 158° |
| 2026-05-04 11:12 | 40.03279 | 12.79906 | 33194 ft | 475 kts | 166° |
| 2026-05-04 11:12 | 40.00123 | 12.81213 | 33192 ft | 473 kts | 166° |
| 2026-05-04 11:12 | 39.93877 | 12.83766 | 33200 ft | 473 kts | 166° |
| 2026-05-04 11:13 | 39.87580 | 12.86352 | 33197 ft | 474 kts | 166° |
| 2026-05-04 11:13 | 39.81280 | 12.88963 | 33190 ft | 474 kts | 166° |
| 2026-05-04 11:14 | 39.80258 | 12.89387 | 33187 ft | 474 kts | 166° |
| 2026-05-04 11:16 | 39.49823 | 13.01928 | 33176 ft | 475 kts | 166° |
| 2026-05-04 11:16 | 39.43516 | 13.04501 | 33170 ft | 475 kts | 166° |
| 2026-05-04 11:17 | 39.37243 | 13.07070 | 33173 ft | 475 kts | 166° |
| 2026-05-04 11:19 | 39.11960 | 13.17371 | 33171 ft | 477 kts | 166° |
| 2026-05-04 11:19 | 39.05651 | 13.19912 | 33170 ft | 477 kts | 166° |
| 2026-05-04 11:20 | 38.99306 | 13.22482 | 33173 ft | 478 kts | 166° |
| 2026-05-04 11:20 | 38.92939 | 13.25054 | 33173 ft | 479 kts | 166° |
| 2026-05-04 11:22 | 38.67488 | 13.35264 | 33164 ft | 480 kts | 166° |
| 2026-05-04 11:23 | 38.61100 | 13.37824 | 33166 ft | 481 kts | 166° |
| 2026-05-04 11:25 | 38.38740 | 13.46718 | 33156 ft | 481 kts | 166° |
| 2026-05-04 11:25 | 38.32357 | 13.49247 | 33176 ft | 486 kts | 166° |
| 2026-05-04 11:26 | 38.25824 | 13.51835 | 33035 ft | 487 kts | 166° |
| 2026-05-04 11:27 | 38.03857 | 13.60501 | 29268 ft | 457 kts | 166° |
| 2026-05-04 11:28 | 38.00837 | 13.61685 | 28698 ft | 453 kts | 166° |
| 2026-05-04 11:28 | 37.97816 | 13.62867 | 27985 ft | 454 kts | 166° |
| 2026-05-04 11:28 | 37.94784 | 13.64051 | 27253 ft | 455 kts | 165° |
| 2026-05-04 11:28 | 37.91831 | 13.65539 | 26494 ft | 460 kts | 153° |
| 2026-05-04 11:29 | 37.89215 | 13.67791 | 25768 ft | 462 kts | 139° |
| 2026-05-04 11:29 | 37.87018 | 13.70784 | 25049 ft | 462 kts | 125° |
| 2026-05-04 11:29 | 37.85416 | 13.74296 | 24348 ft | 460 kts | 112° |
| 2026-05-04 11:29 | 37.84229 | 13.78059 | 23578 ft | 460 kts | 111° |
| 2026-05-04 11:31 | 37.75974 | 14.04199 | 18345 ft | 451 kts | 112° |
| 2026-05-04 11:33 | 37.68187 | 14.28024 | 13232 ft | 371 kts | 112° |
| 2026-05-04 11:33 | 37.67124 | 14.30907 | 12701 ft | 354 kts | 122° |
| 2026-05-04 11:33 | 37.65582 | 14.33230 | 12200 ft | 339 kts | 140° |
| 2026-05-04 11:34 | 37.63636 | 14.34820 | 11708 ft | 331 kts | 158° |
| 2026-05-04 11:34 | 37.61528 | 14.35852 | 11225 ft | 328 kts | 160° |
| 2026-05-04 11:34 | 37.59373 | 14.36872 | 10734 ft | 326 kts | 160° |
| 2026-05-04 11:34 | 37.57287 | 14.37858 | 10263 ft | 323 kts | 160° |
| 2026-05-04 11:35 | 37.55210 | 14.38842 | 9760 ft | 313 kts | 160° |
| 2026-05-04 11:35 | 37.53206 | 14.39791 | 9233 ft | 302 kts | 160° |
| 2026-05-04 11:35 | 37.51274 | 14.40706 | 8740 ft | 292 kts | 160° |
| 2026-05-04 11:35 | 37.49391 | 14.41595 | 8227 ft | 285 kts | 160° |
| 2026-05-04 11:36 | 37.47560 | 14.42461 | 7733 ft | 277 kts | 160° |
| 2026-05-04 11:36 | 37.45766 | 14.43310 | 7244 ft | 270 kts | 160° |
| 2026-05-04 11:36 | 37.44069 | 14.44236 | 6764 ft | 263 kts | 147° |
| 2026-05-04 11:36 | 37.42734 | 14.45751 | 6264 ft | 257 kts | 126° |
| 2026-05-04 11:37 | 37.41944 | 14.47728 | 5754 ft | 252 kts | 105° |
| 2026-05-04 11:37 | 37.41772 | 14.49886 | 5315 ft | 244 kts | 84° |
| 2026-05-04 11:37 | 37.41969 | 14.51905 | 5190 ft | 232 kts | 84° |
| 2026-05-04 11:37 | 37.42149 | 14.53913 | 5083 ft | 231 kts | 84° |
| 2026-05-04 11:38 | 37.42323 | 14.55926 | 4996 ft | 230 kts | 84° |
| 2026-05-04 11:38 | 37.42486 | 14.57928 | 4989 ft | 229 kts | 85° |
| 2026-05-04 11:38 | 37.42645 | 14.59925 | 4993 ft | 230 kts | 84° |
| 2026-05-04 11:38 | 37.42818 | 14.61928 | 4997 ft | 230 kts | 84° |
| 2026-05-04 11:39 | 37.42994 | 14.63927 | 4999 ft | 230 kts | 84° |
| 2026-05-04 11:39 | 37.43171 | 14.65933 | 4998 ft | 230 kts | 84° |
| 2026-05-04 11:40 | 37.44220 | 14.77935 | 4305 ft | 227 kts | 84° |
| 2026-05-04 11:41 | 37.44392 | 14.79918 | 4003 ft | 229 kts | 85° |
| 2026-05-04 11:41 | 37.44566 | 14.81928 | 3698 ft | 232 kts | 85° |
| 2026-05-04 11:41 | 37.44740 | 14.83946 | 3394 ft | 233 kts | 85° |
| 2026-05-04 11:41 | 37.44917 | 14.85989 | 3078 ft | 237 kts | 85° |
| 2026-05-04 11:42 | 37.45095 | 14.88054 | 2767 ft | 242 kts | 85° |
| 2026-05-04 11:42 | 37.45277 | 14.90188 | 2464 ft | 245 kts | 84° |
| 2026-05-04 11:42 | 37.45456 | 14.92259 | 2126 ft | 229 kts | 85° |
| 2026-05-04 11:42 | 37.45620 | 14.94183 | 1833 ft | 214 kts | 83° |
| 2026-05-04 11:43 | 37.45771 | 14.95959 | 1570 ft | 196 kts | 84° |
| 2026-05-04 11:43 | 37.45914 | 14.97632 | 1286 ft | 188 kts | 85° |
| 2026-05-04 11:43 | 37.46050 | 14.99218 | 1062 ft | 175 kts | 85° |
| 2026-05-04 11:43 | 37.46175 | 15.00687 | 817 ft | 162 kts | 84° |
| 2026-05-04 11:44 | 37.46290 | 15.02037 | 618 ft | 148 kts | 87° |
| 2026-05-04 11:44 | 37.46396 | 15.03287 | 425 ft | 137 kts | 85° |
| 2026-05-04 11:44 | 37.46494 | 15.04454 | 244 ft | 132 kts | 88° |
| 2026-05-04 11:44 | 37.46590 | 15.05590 | 57 ft | 128 kts | 87° |
| 2026-05-04 11:45 | 37.46658 | 15.06579 | 38 ft | 83 kts | 87° |
| 2026-05-04 11:45 | 37.46681 | 15.06786 | 35 ft | 14 kts | 60° |
| 2026-05-04 11:45 | 37.46794 | 15.06899 | 31 ft | 23 kts | 337° |
| 2026-05-04 11:45 | 37.46854 | 15.06830 | 32 ft | 12 kts | 282° |
| 2026-05-04 11:46 | 37.46852 | 15.06742 | 34 ft | 9 kts | 261° |
| 2026-05-04 11:46 | 37.46864 | 15.06693 | 34 ft | 3 kts | 359° |
| 2026-05-04 11:46 | 37.46867 | 15.06693 | 34 ft | 1 kts | 358° |
| 2026-05-04 11:46 | 37.46874 | 15.06692 | 34 ft | 2 kts | 357° |
| 2026-05-04 11:47 | 37.46886 | 15.06691 | 33 ft | 3 kts | 353° |
| 2026-05-04 11:47 | 37.46912 | 15.06683 | 33 ft | 4 kts | 349° |
| 2026-05-04 11:47 | 37.46923 | 15.06681 | 32 ft | 0 kts | 352° |